Archival Weather

Chicago O'Hare International

Chicago, Illinois (KORD)

Report from: Tuesday, February 27, 2024 2:51 PM CST
Current time: Wednesday, May 29, 2024 6:43 PM CDT

Current weather – Weather history – Daily summaries
Weather forecast

Temperature22.8°C (73.0°F)
Dew point13.9°C (57.0°F)
Winds 9 kts (4.6 m/s, 10.4 mph) South (180°)
Wind gusts 17 kts (8.7 m/s, 19.6 mph)
Visibility10 mi. (16.1 km)
Clouds Few clouds 3,200 ft. (975 m)
Ceiling: Broken clouds 25,000 ft. (7,620 m)
Altimeter29.27 in.Hg (991 mB)
Relative humidity57 %
Density altitude1,887 ft. (575 m)
Sea-level pressure99.1 kPa (991 mB, 29.26 in.Hg)
Remarks System requires maintenance
Automated weather observing station with precipitation discriminator
Pressure falling more slowly
Flight conditions Visual Meteorological Conditions
Raw dataKORD 272051Z 18009G17KT 10SM FEW032 BKN250 23/14 A2927 RMK AO2 SLP909 T02280139 56027 $
An error has occurred. This application may no longer respond until reloaded. Reload 🗙